createdAt,value
2023-04-06T00:01:00.528Z,20.80
2023-04-06T00:03:27.473Z,19.13
2023-04-06T00:05:54.356Z,21.83
2023-04-06T00:08:22.441Z,24.53
2023-04-06T00:10:49.191Z,22.27
2023-04-06T00:13:16.665Z,25.00
2023-04-06T00:15:43.434Z,23.93
2023-04-06T00:18:10.275Z,24.37
2023-04-06T00:20:37.052Z,25.13
2023-04-06T00:23:03.895Z,23.07
2023-04-06T00:25:31.226Z,21.77
2023-04-06T00:27:58.040Z,23.23
2023-04-06T00:30:25.588Z,18.10
2023-04-06T00:32:52.481Z,26.27
2023-04-06T00:35:19.439Z,21.13
2023-04-06T00:37:49.050Z,28.50
2023-04-06T00:40:16.457Z,20.83
2023-04-06T00:42:43.360Z,24.93
2023-04-06T00:45:10.855Z,22.97
2023-04-06T00:47:37.844Z,21.67
2023-04-06T00:50:05.065Z,23.97
2023-04-06T00:52:31.877Z,29.00
2023-04-06T00:54:58.646Z,22.37
2023-04-06T00:57:25.440Z,22.07
2023-04-06T00:59:53.657Z,21.90
2023-04-06T01:02:20.670Z,25.50
2023-04-06T01:04:47.477Z,20.60
2023-04-06T01:07:14.430Z,22.03
2023-04-06T01:09:42.966Z,22.97
2023-04-06T01:12:09.932Z,19.40
2023-04-06T01:14:36.862Z,19.80
2023-04-06T01:17:03.819Z,20.60
2023-04-06T01:19:30.658Z,23.00
2023-04-06T01:21:57.949Z,19.47
2023-04-06T01:24:24.778Z,24.50
2023-04-06T01:26:51.636Z,22.20
2023-04-06T01:29:18.411Z,22.97
2023-04-06T01:31:45.648Z,22.37
2023-04-06T01:34:12.529Z,23.47
2023-04-06T01:36:39.350Z,20.23
2023-04-06T01:39:06.327Z,21.73
2023-04-06T01:41:33.306Z,22.90
2023-04-06T01:44:00.156Z,23.83
2023-04-06T01:46:27.264Z,20.57
2023-04-06T01:48:54.472Z,19.20
2023-04-06T01:51:21.327Z,21.90
2023-04-06T01:53:49.365Z,27.73
2023-04-06T01:56:16.254Z,24.40
2023-04-06T01:58:43.270Z,23.93
2023-04-06T02:01:10.549Z,25.37
2023-04-06T02:03:37.405Z,20.50
2023-04-06T02:06:04.924Z,19.67
2023-04-06T02:08:31.826Z,24.90
2023-04-06T02:10:59.017Z,20.50
2023-04-06T02:13:25.777Z,20.30
2023-04-06T02:15:52.567Z,18.27
2023-04-06T02:18:19.585Z,23.40
2023-04-06T02:20:46.734Z,23.40
2023-04-06T02:23:13.589Z,20.50
2023-04-06T02:25:41.124Z,25.53
2023-04-06T02:28:08.238Z,27.80
2023-04-06T02:30:35.514Z,20.73
2023-04-06T02:33:03.092Z,21.30
2023-04-06T02:35:31.446Z,21.63
2023-04-06T02:37:58.244Z,20.73
2023-04-06T02:40:25.589Z,22.77
2023-04-06T02:42:52.358Z,26.73
2023-04-06T02:45:19.279Z,28.23
2023-04-06T02:47:46.330Z,19.80
2023-04-06T02:50:13.226Z,18.97
2023-04-06T02:52:40.400Z,20.03
2023-04-06T02:55:08.683Z,21.93
2023-04-06T02:57:36.295Z,21.17
2023-04-06T03:00:03.340Z,19.60
2023-04-06T03:02:30.550Z,21.10
2023-04-06T03:04:57.440Z,26.23
2023-04-06T03:07:24.306Z,26.70
2023-04-06T03:09:51.264Z,22.27
2023-04-06T03:12:18.468Z,24.00
2023-04-06T03:14:45.310Z,24.23
2023-04-06T03:17:12.641Z,26.27
2023-04-06T03:19:39.778Z,22.20
2023-04-06T03:22:06.941Z,21.00
2023-04-06T03:24:33.796Z,35.70
2023-04-06T03:27:01.392Z,33.23
2023-04-06T03:29:28.639Z,27.90
2023-04-06T03:31:55.935Z,23.70
2023-04-06T03:34:22.719Z,26.50
2023-04-06T03:36:59.560Z,23.87
2023-04-06T03:39:33.816Z,24.37
2023-04-06T03:42:00.702Z,24.23
2023-04-06T03:44:27.833Z,28.60
2023-04-06T03:46:54.746Z,27.57
2023-04-06T03:49:21.644Z,34.33
2023-04-06T03:51:48.757Z,25.47
2023-04-06T03:54:15.936Z,29.03
2023-04-06T03:56:42.837Z,28.03
2023-04-06T03:59:10.336Z,29.73
2023-04-06T04:01:37.442Z,23.60
2023-04-06T04:04:04.623Z,25.20
2023-04-06T04:06:31.557Z,24.10
2023-04-06T04:08:58.683Z,34.63
2023-04-06T04:11:25.828Z,35.53
2023-04-06T04:13:52.558Z,26.10
2023-04-06T04:16:19.745Z,25.10
2023-04-06T04:18:48.209Z,23.03
2023-04-06T04:21:15.007Z,28.70
2023-04-06T04:23:42.368Z,32.13
2023-04-06T04:26:09.524Z,26.20
2023-04-06T04:28:36.279Z,27.27
2023-04-06T04:31:03.437Z,28.43
2023-04-06T04:33:30.871Z,27.63
2023-04-06T04:35:57.697Z,32.40
2023-04-06T04:38:24.505Z,28.00
2023-04-06T04:40:51.637Z,33.80
2023-04-06T04:43:18.391Z,22.87
2023-04-06T04:45:45.684Z,34.80
2023-04-06T04:48:12.561Z,26.50
2023-04-06T04:50:39.616Z,26.23
2023-04-06T04:53:07.064Z,28.80
2023-04-06T04:55:34.513Z,34.27
2023-04-06T04:58:01.800Z,26.00
2023-04-06T05:00:28.916Z,27.30
2023-04-06T05:02:55.780Z,42.10
2023-04-06T05:05:22.586Z,34.33
2023-04-06T05:07:49.292Z,28.40
2023-04-06T05:10:16.522Z,30.07
2023-04-06T05:12:43.635Z,35.13
2023-04-06T05:15:11.065Z,26.40
2023-04-06T05:17:37.906Z,33.80
2023-04-06T05:20:05.594Z,38.97
2023-04-06T05:22:32.720Z,31.80
2023-04-06T05:24:59.461Z,27.70
2023-04-06T05:27:26.316Z,33.53
2023-04-06T05:29:54.978Z,32.10
2023-04-06T05:32:23.992Z,42.83
2023-04-06T05:34:51.085Z,31.17
2023-04-06T05:37:17.874Z,30.20
2023-04-06T05:39:44.628Z,31.10
2023-04-06T05:42:12.241Z,25.57
2023-04-06T05:44:39.611Z,28.03
2023-04-06T05:47:06.341Z,28.67
2023-04-06T05:49:33.125Z,28.70
2023-04-06T05:51:59.835Z,29.40
2023-04-06T05:54:27.038Z,26.80
2023-04-06T05:56:53.935Z,27.00
2023-04-06T05:59:21.763Z,22.47
2023-04-06T06:01:49.009Z,27.70
2023-04-06T06:04:16.154Z,27.60
2023-04-06T06:06:42.886Z,29.87
2023-04-06T06:09:09.752Z,30.50
2023-04-06T06:11:38.245Z,24.73
2023-04-06T06:14:05.306Z,24.37
2023-04-06T06:16:32.112Z,32.17
2023-04-06T06:18:58.878Z,25.20
2023-04-06T06:21:25.713Z,24.73
2023-04-06T06:23:52.514Z,25.17
2023-04-06T06:26:19.656Z,23.50
2023-04-06T06:28:46.396Z,28.00
2023-04-06T06:31:13.353Z,24.20
2023-04-06T06:33:40.272Z,29.53
2023-04-06T06:36:07.252Z,24.43
2023-04-06T06:38:34.010Z,28.47
2023-04-06T06:41:01.007Z,21.50
2023-04-06T06:43:27.919Z,22.00
2023-04-06T06:45:54.774Z,22.07
2023-04-06T06:48:21.583Z,24.90
2023-04-06T06:50:49.564Z,18.93
2023-04-06T06:53:16.657Z,17.80
2023-04-06T06:55:45.142Z,21.63
2023-04-06T06:58:12.035Z,19.73
2023-04-06T07:00:39.202Z,32.27
2023-04-06T07:03:06.244Z,21.67
2023-04-06T07:08:08.425Z,16.90
2023-04-06T07:10:36.148Z,19.03
2023-04-06T07:13:02.994Z,23.53
2023-04-06T07:15:29.697Z,24.00
2023-04-06T07:17:56.880Z,34.77
2023-04-06T07:20:23.773Z,36.40
2023-04-06T07:22:50.681Z,42.97
2023-04-06T07:25:17.449Z,30.17
2023-04-06T07:27:44.274Z,33.43
2023-04-06T07:30:11.473Z,25.33
2023-04-06T07:32:38.408Z,26.20
2023-04-06T07:35:05.915Z,22.50
2023-04-06T07:37:32.699Z,29.93
2023-04-06T07:39:59.530Z,24.53
2023-04-06T07:42:26.317Z,22.57
2023-04-06T07:44:53.032Z,29.40
2023-04-06T07:47:20.087Z,22.50
2023-04-06T07:49:46.796Z,22.60
2023-04-06T07:52:13.572Z,17.80
2023-04-06T07:54:42.450Z,20.97
2023-04-06T07:57:09.188Z,25.33
2023-04-06T07:59:36.113Z,17.83
2023-04-06T08:02:02.962Z,13.97
2023-04-06T08:04:29.938Z,15.30
2023-04-06T08:06:56.755Z,17.53
2023-04-06T08:09:23.553Z,16.97
2023-04-06T08:11:50.312Z,20.63
2023-04-06T08:14:17.156Z,16.83
2023-04-06T08:16:44.047Z,17.73
2023-04-06T08:19:10.817Z,17.90
2023-04-06T08:21:37.590Z,17.83
2023-04-06T08:24:04.637Z,16.70
2023-04-06T08:26:31.559Z,14.30
2023-04-06T08:28:58.403Z,15.70
2023-04-06T08:31:25.595Z,27.93
2023-04-06T08:33:52.352Z,15.40
2023-04-06T08:36:23.663Z,16.07
2023-04-06T08:38:50.874Z,17.83
2023-04-06T08:41:18.755Z,17.83
2023-04-06T08:43:49.097Z,13.53
2023-04-06T08:46:16.605Z,13.67
2023-04-06T08:48:44.395Z,15.30
2023-04-06T08:51:11.664Z,18.83
2023-04-06T08:53:39.423Z,19.93
2023-04-06T08:56:06.959Z,15.87
2023-04-06T08:58:39.346Z,20.00
2023-04-06T09:01:11.964Z,13.60
2023-04-06T09:03:41.560Z,16.93
2023-04-06T09:06:09.954Z,14.40
2023-04-06T09:08:39.189Z,14.90
2023-04-06T09:11:06.976Z,17.00
2023-04-06T09:13:51.388Z,16.00
2023-04-06T09:16:18.837Z,16.53
2023-04-06T09:18:46.221Z,15.63
2023-04-06T09:21:13.038Z,15.90
2023-04-06T09:23:40.425Z,21.00
2023-04-06T09:26:18.331Z,16.80
2023-04-06T09:29:07.159Z,14.93
2023-04-06T09:31:34.307Z,15.40
2023-04-06T09:34:01.767Z,18.53
2023-04-06T09:36:42.933Z,15.40
2023-04-06T09:39:09.719Z,15.20
2023-04-06T09:41:37.207Z,14.03
2023-04-06T09:44:08.149Z,14.57
2023-04-06T09:46:58.961Z,17.63
2023-04-06T09:49:34.305Z,18.80
2023-04-06T09:52:07.640Z,15.90
2023-04-06T09:54:37.300Z,16.87
2023-04-06T09:57:14.663Z,15.43
2023-04-06T10:00:12.165Z,16.13
2023-04-06T10:03:08.555Z,16.67
2023-04-06T10:05:51.717Z,18.13
2023-04-06T10:08:20.452Z,16.53
2023-04-06T10:10:48.115Z,16.73
2023-04-06T10:13:15.094Z,17.57
2023-04-06T10:15:43.875Z,22.40
2023-04-06T10:18:11.007Z,18.60
2023-04-06T10:20:52.170Z,17.40
2023-04-06T10:23:32.052Z,16.87
2023-04-06T10:26:01.501Z,17.80
2023-04-06T10:28:34.245Z,17.17
2023-04-06T10:31:03.275Z,16.20
2023-04-06T10:33:30.174Z,23.73
2023-04-06T10:35:57.261Z,18.30
2023-04-06T10:38:41.459Z,18.53
2023-04-06T10:41:11.548Z,20.50
2023-04-06T10:43:43.241Z,20.60
2023-04-06T10:46:11.610Z,20.77
2023-04-06T10:48:48.895Z,18.23
2023-04-06T10:51:18.055Z,20.50
2023-04-06T10:53:47.705Z,20.53
2023-04-06T10:56:17.410Z,22.07
2023-04-06T10:58:52.638Z,24.20
2023-04-06T11:01:21.676Z,20.20
2023-04-06T11:03:50.512Z,22.53
2023-04-06T11:06:21.120Z,18.03
2023-04-06T11:08:47.974Z,22.23
2023-04-06T11:11:17.038Z,19.57
2023-04-06T11:13:45.359Z,21.20
2023-04-06T11:16:25.346Z,19.10
2023-04-06T11:18:52.139Z,18.10
2023-04-06T11:21:20.036Z,20.30
2023-04-06T11:23:46.877Z,20.87
2023-04-06T11:26:15.167Z,20.03
2023-04-06T11:28:44.951Z,21.80
2023-04-06T11:31:12.489Z,20.73
2023-04-06T11:33:39.900Z,21.20
2023-04-06T11:36:07.838Z,18.83
2023-04-06T11:38:34.774Z,21.80
2023-04-06T11:41:02.810Z,23.43
2023-04-06T11:43:32.475Z,20.57
2023-04-06T11:46:04.202Z,19.67
2023-04-06T11:48:32.034Z,19.50
2023-04-06T11:51:01.758Z,22.40
2023-04-06T11:53:30.104Z,20.50
2023-04-06T11:55:57.644Z,21.63
2023-04-06T11:58:24.740Z,20.20
2023-04-06T12:00:51.589Z,20.13
2023-04-06T12:03:18.407Z,20.20
2023-04-06T12:05:45.458Z,19.30
2023-04-06T12:08:12.290Z,20.07
2023-04-06T12:10:39.057Z,25.60
2023-04-06T12:13:06.314Z,23.33
2023-04-06T12:15:33.196Z,19.30
2023-04-06T12:17:59.980Z,25.03
2023-04-06T12:20:27.647Z,20.00
2023-04-06T12:22:54.785Z,28.63
2023-04-06T12:25:21.609Z,21.87
2023-04-06T12:27:48.786Z,19.57
2023-04-06T12:30:16.403Z,28.30
2023-04-06T12:32:43.285Z,24.20
2023-04-06T12:35:12.564Z,25.53
2023-04-06T12:37:39.338Z,24.37
2023-04-06T12:40:06.785Z,20.43
2023-04-06T12:42:33.578Z,19.50
2023-04-06T12:45:00.364Z,22.80
2023-04-06T12:47:27.633Z,24.33
2023-04-06T12:49:55.765Z,19.33
2023-04-06T12:52:22.555Z,17.77
2023-04-06T12:54:50.145Z,27.60
2023-04-06T12:57:18.251Z,21.90
2023-04-06T12:59:45.710Z,20.43
2023-04-06T13:02:13.085Z,24.10
2023-04-06T13:04:40.280Z,19.40
2023-04-06T13:07:07.096Z,20.30
2023-04-06T13:09:33.907Z,18.87
2023-04-06T13:12:01.956Z,16.70
2023-04-06T13:14:28.862Z,19.23
2023-04-06T13:16:55.995Z,23.33
2023-04-06T13:19:23.729Z,19.03
2023-04-06T13:21:50.604Z,22.90
2023-04-06T13:24:17.869Z,21.17
2023-04-06T13:26:44.982Z,19.47
2023-04-06T13:29:11.909Z,18.40
2023-04-06T13:31:39.911Z,28.77
2023-04-06T13:34:06.806Z,20.10
2023-04-06T13:36:33.659Z,29.30
2023-04-06T13:39:00.597Z,20.57
2023-04-06T13:41:27.594Z,21.93
2023-04-06T13:43:54.418Z,18.20
2023-04-06T13:46:21.481Z,16.30
2023-04-06T13:48:48.930Z,15.07
2023-04-06T13:51:16.400Z,17.40
2023-04-06T13:53:43.230Z,16.53
2023-04-06T13:56:10.540Z,16.27
2023-04-06T13:58:37.475Z,16.83
2023-04-06T14:01:11.369Z,16.47
2023-04-06T14:03:40.389Z,15.33
2023-04-06T14:08:44.361Z,15.37
2023-04-06T14:11:14.482Z,15.20
2023-04-06T14:13:41.299Z,17.13
2023-04-06T14:16:08.605Z,18.90
2023-04-06T14:18:37.705Z,24.23
2023-04-06T14:21:04.630Z,17.57
2023-04-06T14:23:31.380Z,16.67
2023-04-06T14:26:06.247Z,19.27
2023-04-06T14:28:36.870Z,20.53
2023-04-06T14:31:11.246Z,18.17
2023-04-06T14:33:38.038Z,15.33
2023-04-06T14:36:05.941Z,17.67
2023-04-06T14:38:33.596Z,17.47
2023-04-06T14:41:00.455Z,18.80
2023-04-06T14:43:27.407Z,22.03
2023-04-06T14:45:54.372Z,24.90
2023-04-06T14:48:21.136Z,22.40
2023-04-06T14:50:57.542Z,17.50
2023-04-06T14:53:25.391Z,19.73
2023-04-06T14:55:54.893Z,18.17
2023-04-06T14:58:23.241Z,16.97
2023-04-06T15:00:50.493Z,17.83
2023-04-06T15:03:17.431Z,20.23
2023-04-06T15:05:44.295Z,20.50
2023-04-06T15:08:12.475Z,19.20
2023-04-06T15:10:39.213Z,20.30
2023-04-06T15:13:06.203Z,20.07
2023-04-06T15:15:33.066Z,22.20
2023-04-06T15:18:03.367Z,22.17
2023-04-06T15:20:30.656Z,22.27
2023-04-06T15:22:57.711Z,21.07
2023-04-06T15:25:24.491Z,22.33
2023-04-06T15:27:51.336Z,24.83
2023-04-06T15:30:18.047Z,23.10
2023-04-06T15:32:57.044Z,23.63
2023-04-06T15:35:23.979Z,28.20
2023-04-06T15:37:50.766Z,27.40
2023-04-06T15:40:17.492Z,22.33
2023-04-06T15:42:44.452Z,24.57
2023-04-06T15:45:12.096Z,28.00
2023-04-06T15:47:39.772Z,23.40
2023-04-06T15:50:07.383Z,23.13
2023-04-06T15:52:36.345Z,24.20
2023-04-06T15:55:05.811Z,26.43
2023-04-06T15:57:32.549Z,22.63
2023-04-06T15:59:59.649Z,31.57
2023-04-06T16:02:26.937Z,24.70
2023-04-06T16:05:04.079Z,28.27
2023-04-06T16:07:32.291Z,24.50
2023-04-06T16:09:59.035Z,25.03
2023-04-06T16:12:27.715Z,25.70
2023-04-06T16:14:55.715Z,26.17
2023-04-06T16:17:22.964Z,28.23
2023-04-06T16:19:49.930Z,32.17
2023-04-06T16:22:16.752Z,32.60
2023-04-06T16:24:43.464Z,30.00
2023-04-06T16:27:10.628Z,25.77
2023-04-06T16:29:37.339Z,31.93
2023-04-06T16:32:04.732Z,29.60
2023-04-06T16:34:34.441Z,27.17
2023-04-06T16:37:01.858Z,28.80
2023-04-06T16:39:28.952Z,29.03
2023-04-06T16:41:56.729Z,27.67
2023-04-06T16:44:23.753Z,26.00
2023-04-06T16:46:51.207Z,32.77
2023-04-06T16:49:20.081Z,27.40
2023-04-06T16:51:47.092Z,29.10
2023-04-06T16:54:13.893Z,27.10
2023-04-06T16:56:40.632Z,29.77
2023-04-06T16:59:08.931Z,27.53
2023-04-06T17:01:35.788Z,31.37
2023-04-06T17:04:02.645Z,26.27
2023-04-06T17:06:29.505Z,33.63
2023-04-06T17:08:56.526Z,30.80
2023-04-06T17:11:28.545Z,23.43
2023-04-06T17:14:02.855Z,26.57
2023-04-06T17:16:29.722Z,28.07
2023-04-06T17:18:57.802Z,36.57
2023-04-06T17:21:24.636Z,31.03
2023-04-06T17:23:51.544Z,32.03
2023-04-06T17:26:18.845Z,35.00
2023-04-06T17:28:45.754Z,34.03
2023-04-06T17:31:12.965Z,38.27
2023-04-06T17:33:41.028Z,38.20
2023-04-06T17:36:12.458Z,34.60
2023-04-06T17:38:43.537Z,32.23
2023-04-06T17:41:11.889Z,34.93
2023-04-06T17:43:38.736Z,32.00
2023-04-06T17:46:05.923Z,24.13
2023-04-06T17:48:32.718Z,33.30
2023-04-06T17:50:59.433Z,33.00
2023-04-06T17:53:26.593Z,28.83
2023-04-06T17:55:53.324Z,24.30
2023-04-06T17:58:20.332Z,32.33
2023-04-06T18:00:47.014Z,27.43
2023-04-06T18:03:13.822Z,28.67
2023-04-06T18:05:40.608Z,36.30
2023-04-06T18:08:07.394Z,34.70
2023-04-06T18:10:37.884Z,34.70
2023-04-06T18:13:04.690Z,25.90
2023-04-06T18:15:31.829Z,32.33
2023-04-06T18:17:58.563Z,29.80
2023-04-06T18:20:25.513Z,24.90
2023-04-06T18:22:52.343Z,22.90
2023-04-06T18:25:19.187Z,33.13
2023-04-06T18:27:46.012Z,24.03
2023-04-06T18:30:14.126Z,23.87
2023-04-06T18:32:40.916Z,24.73
2023-04-06T18:35:09.272Z,25.33
2023-04-06T18:37:36.654Z,22.60
2023-04-06T18:40:04.122Z,22.70
2023-04-06T18:42:30.860Z,25.80
2023-04-06T18:44:57.608Z,23.03
2023-04-06T18:47:24.351Z,23.50
2023-04-06T18:49:51.181Z,26.53
2023-04-06T18:52:17.971Z,23.10
2023-04-06T18:54:44.669Z,24.10
2023-04-06T18:57:11.368Z,28.63
2023-04-06T18:59:38.092Z,26.37
2023-04-06T19:02:04.946Z,33.03
2023-04-06T19:04:31.830Z,38.03
2023-04-06T19:07:00.722Z,41.27
2023-04-06T19:09:28.317Z,52.10
2023-04-06T19:11:55.027Z,51.07
2023-04-06T19:14:21.926Z,51.43
2023-04-06T19:16:52.395Z,46.97
2023-04-06T19:19:19.643Z,47.00
2023-04-06T19:21:46.690Z,46.80
2023-04-06T19:24:13.489Z,47.47
2023-04-06T19:26:40.243Z,55.73
2023-04-06T19:29:06.973Z,42.57
2023-04-06T19:31:33.771Z,49.60
2023-04-06T19:34:00.589Z,39.33
2023-04-06T19:36:28.375Z,34.90
2023-04-06T19:38:55.442Z,43.53
2023-04-06T19:41:22.201Z,33.80
2023-04-06T19:43:48.972Z,35.83
2023-04-06T19:46:15.763Z,32.43
2023-04-06T19:48:43.179Z,29.10
2023-04-06T19:51:09.937Z,30.07
2023-04-06T19:53:37.660Z,27.93
2023-04-06T19:56:04.559Z,27.87
2023-04-06T19:58:31.814Z,24.80
2023-04-06T20:00:58.522Z,21.70
2023-04-06T20:03:25.313Z,24.37
2023-04-06T20:05:52.062Z,27.30
2023-04-06T20:08:18.802Z,20.40
2023-04-06T20:10:45.712Z,21.27
2023-04-06T20:13:12.386Z,23.97
2023-04-06T20:15:39.606Z,23.53
2023-04-06T20:18:06.354Z,18.80
2023-04-06T20:20:33.117Z,22.67
2023-04-06T20:22:59.836Z,23.10
2023-04-06T20:25:26.678Z,22.90
2023-04-06T20:27:54.095Z,22.13
2023-04-06T20:30:21.021Z,22.10
2023-04-06T20:32:47.779Z,23.33
2023-04-06T20:35:14.581Z,24.33
2023-04-06T20:37:41.934Z,22.93
2023-04-06T20:40:09.166Z,23.00
2023-04-06T20:42:37.234Z,24.57
2023-04-06T20:45:04.623Z,25.20
2023-04-06T20:47:31.958Z,26.93
2023-04-06T20:49:59.554Z,20.83
2023-04-06T20:52:29.410Z,20.73
2023-04-06T20:54:57.172Z,24.20
2023-04-06T20:57:25.320Z,22.77
2023-04-06T20:59:52.076Z,21.00
2023-04-06T21:02:19.056Z,29.13
2023-04-06T21:04:45.888Z,20.43
2023-04-06T21:07:12.776Z,23.90
2023-04-06T21:09:40.841Z,21.10
2023-04-06T21:12:08.054Z,22.20
2023-04-06T21:14:35.345Z,23.83
2023-04-06T21:17:02.398Z,21.73
2023-04-06T21:19:29.232Z,26.73
2023-04-06T21:21:55.974Z,24.90
2023-04-06T21:24:22.710Z,20.50
2023-04-06T21:26:49.625Z,19.77
2023-04-06T21:29:16.431Z,19.17
2023-04-06T21:31:43.361Z,20.03
2023-04-06T21:34:13.961Z,26.03
2023-04-06T21:36:42.077Z,26.17
2023-04-06T21:39:09.378Z,21.70
2023-04-06T21:41:36.170Z,19.73
2023-04-06T21:44:03.045Z,19.50
2023-04-06T21:46:29.846Z,20.53
2023-04-06T21:48:56.621Z,21.23
2023-04-06T21:51:23.954Z,23.00
2023-04-06T21:53:52.640Z,21.10
2023-04-06T21:56:24.061Z,18.70
2023-04-06T21:58:52.125Z,19.40
2023-04-06T22:01:19.672Z,19.80
2023-04-06T22:03:47.219Z,21.57
2023-04-06T22:06:14.143Z,25.03
2023-04-06T22:08:40.929Z,23.50
2023-04-06T22:11:09.567Z,25.97
2023-04-06T22:13:36.762Z,21.13
2023-04-06T22:16:04.575Z,21.87
2023-04-06T22:18:31.958Z,24.90
2023-04-06T22:20:59.047Z,21.53
2023-04-06T22:23:25.894Z,21.13
2023-04-06T22:25:53.101Z,23.20
2023-04-06T22:28:20.325Z,22.90
2023-04-06T22:30:47.112Z,23.77
2023-04-06T22:33:13.893Z,23.07
2023-04-06T22:35:40.984Z,23.67
2023-04-06T22:38:07.762Z,30.40
2023-04-06T22:40:34.451Z,25.80
2023-04-06T22:43:01.135Z,24.83
2023-04-06T22:45:27.916Z,23.80
2023-04-06T22:47:54.643Z,23.53
2023-04-06T22:50:21.885Z,22.43
2023-04-06T22:52:48.822Z,19.47
2023-04-06T22:55:15.734Z,25.73
2023-04-06T22:57:42.496Z,22.80
2023-04-06T23:00:10.028Z,20.90
2023-04-06T23:02:36.823Z,24.90
2023-04-06T23:05:03.667Z,19.00
2023-04-06T23:07:32.531Z,23.63
2023-04-06T23:09:59.576Z,23.00
2023-04-06T23:12:26.355Z,20.20
2023-04-06T23:14:53.249Z,20.40
2023-04-06T23:17:20.069Z,19.57
2023-04-06T23:19:47.015Z,22.73
2023-04-06T23:22:13.701Z,23.33
2023-04-06T23:24:40.450Z,19.10
2023-04-06T23:27:07.214Z,20.87
2023-04-06T23:29:33.976Z,21.80
2023-04-06T23:32:01.153Z,24.20
2023-04-06T23:34:28.021Z,19.70
2023-04-06T23:36:55.187Z,19.07
2023-04-06T23:39:21.948Z,21.50
2023-04-06T23:41:49.097Z,18.50
2023-04-06T23:44:16.014Z,23.60
2023-04-06T23:46:42.879Z,24.00
2023-04-06T23:49:09.711Z,26.43
2023-04-06T23:51:36.627Z,26.60
2023-04-06T23:54:04.869Z,23.20
2023-04-06T23:56:31.758Z,22.10
2023-04-06T23:58:58.558Z,19.40
